Cedar Lake, Indiana
Current Conditions -  °F | °C
As of 3:35 PM on Wednesday 17 Dec 2014 (Local Time) from KIGQ Reporting Station
Overcast Overcast  
Wind Chill: 17°   Ceiling: 2400
Heat Index: 27°   Visibility: 10mi
Dew Point: 18°   Wind: 12mph
Humidity: 70%   Direction: 300°WNW
Pressure: 30.24"   Gusts: NA
Location:  41.37°N, 87.42°W
Report Text: KIGQ 172135Z AUTO 30010KT 10SM OVC024 M03/M08 A3024 RMK AO2 T10281076
Loading
Personal Weather Stations






























Interactive Weather Map New forecast layout! Learn more

10-Day Weather Forecast

Advertisements
Track Severe Weather on mobile